Time;durP1;ratioP1;P1;durP2;ratioP2;P2;SDS_P1;SDS_P2;PMS_P1;PMS_P2;Temp;Humidity;BMP_temperature;BMP_pressure;BME280_temperature;BME280_humidity;BME280_pressure;Samples;Min_cycle;Max_cycle;Signal;HPM_P1;HPM_P2
2022/05/26 00:01:42;;;;;;;1.37;1.00;;;;;;;14.91;58.71;97163.41;5015645;28;20246;-79
2022/05/26 00:04:08;;;;;;;0.83;0.83;;;;;;;14.91;58.57;97171.31;4997627;28;20182;-80
2022/05/26 00:06:33;;;;;;;2.60;0.97;;;;;;;14.76;59.15;97168.47;5013667;28;20210;-79
2022/05/26 00:09:00;;;;;;;2.70;0.77;;;;;;;14.85;58.78;97169.66;5014402;28;20199;-78
2022/05/26 00:11:31;;;;;;;1.00;1.00;;;;;;;14.90;58.53;97167.06;5015768;28;20187;-79
2022/05/26 00:13:58;;;;;;;4.33;0.80;;;;;;;14.80;59.00;97172.22;5022055;28;20179;-77
2022/05/26 00:16:25;;;;;;;4.37;1.20;;;;;;;14.83;59.17;97169.09;5024076;28;20202;-77
2022/05/26 00:18:51;;;;;;;1.43;0.90;;;;;;;14.87;58.88;97167.56;5027414;28;20238;-78
2022/05/26 00:21:17;;;;;;;1.40;0.90;;;;;;;14.84;58.94;97170.69;5014165;28;20196;-79
2022/05/26 00:23:43;;;;;;;2.07;0.90;;;;;;;14.94;58.56;97175.28;5028456;28;20187;-78
2022/05/26 00:26:08;;;;;;;1.57;0.90;;;;;;;14.83;59.10;97176.19;5029665;28;20193;-79
2022/05/26 00:28:34;;;;;;;1.53;0.83;;;;;;;14.93;58.91;97173.72;5028871;28;20632;-77
2022/05/26 00:30:59;;;;;;;3.67;1.20;;;;;;;15.07;58.62;97177.59;5028594;28;20729;-78
2022/05/26 00:33:26;;;;;;;0.90;0.90;;;;;;;15.06;58.69;97169.91;5027222;28;20195;-77
2022/05/26 00:35:51;;;;;;;1.40;1.00;;;;;;;15.13;58.56;97170.53;4997171;28;20192;-78
2022/05/26 00:38:17;;;;;;;0.67;0.67;;;;;;;15.03;58.76;97165.94;5028294;28;20305;-79
2022/05/26 00:40:44;;;;;;;0.93;0.90;;;;;;;14.99;59.05;97172.72;5021803;28;20188;-78
2022/05/26 00:43:11;;;;;;;0.90;0.90;;;;;;;15.04;58.87;97170.16;5020584;28;20229;-78
2022/05/26 00:45:44;;;;;;;1.37;0.67;;;;;;;15.06;58.99;97167.25;5021291;28;20187;-79
2022/05/26 00:48:14;;;;;;;3.23;0.90;;;;;;;15.04;58.94;97167.53;5021058;28;20190;-79
2022/05/26 00:50:48;;;;;;;1.27;0.80;;;;;;;15.02;58.96;97164.31;5021036;28;20266;-79
2022/05/26 00:53:45;;;;;;;0.70;0.70;;;;;;;14.97;59.07;97159.78;5020712;28;20179;-78
2022/05/26 00:56:32;;;;;;;0.80;0.80;;;;;;;15.00;59.03;97163.75;5017069;28;20192;-79
2022/05/26 00:59:05;;;;;;;1.70;1.00;;;;;;;14.83;59.52;97157.72;5019590;28;20237;-78
2022/05/26 01:01:30;;;;;;;1.00;0.80;;;;;;;14.87;59.56;97154.38;5020341;28;20270;-78
2022/05/26 01:04:06;;;;;;;2.27;0.90;;;;;;;14.91;59.45;97160.75;5019561;28;20226;-79
2022/05/26 01:06:42;;;;;;;2.30;0.80;;;;;;;14.82;59.80;97161.44;5022815;28;20185;-78
2022/05/26 01:09:07;;;;;;;0.93;0.80;;;;;;;14.89;59.92;97160.19;5023237;28;20191;-79
2022/05/26 01:11:38;;;;;;;1.77;1.10;;;;;;;14.85;59.89;97153.00;5024277;28;20241;-79
2022/05/26 01:14:12;;;;;;;0.70;0.70;;;;;;;14.84;59.99;97159.31;5023619;28;20199;-79
2022/05/26 01:17:11;;;;;;;0.87;0.87;;;;;;;14.85;59.78;97150.38;5022220;28;20733;-78
2022/05/26 01:20:25;;;;;;;1.13;0.97;;;;;;;14.86;59.57;97157.25;5020051;28;20227;-79
2022/05/26 01:23:33;;;;;;;0.63;0.63;;;;;;;14.85;59.31;97150.38;5022506;28;20187;-79
2022/05/26 01:26:20;;;;;;;0.83;0.83;;;;;;;14.86;59.40;97154.63;5023900;28;20182;-79
2022/05/26 01:28:48;;;;;;;0.97;0.90;;;;;;;14.83;59.74;97158.53;5021562;28;20176;-79
2022/05/26 01:31:22;;;;;;;1.70;0.67;;;;;;;14.73;59.48;97163.69;5022590;28;20211;-78
2022/05/26 01:33:50;;;;;;;0.70;0.70;;;;;;;14.77;59.52;97154.22;5025688;28;20183;-79
2022/05/26 01:36:19;;;;;;;0.97;0.90;;;;;;;14.79;59.32;97157.44;5025509;28;20187;-79
2022/05/26 01:39:32;;;;;;;1.13;0.90;;;;;;;14.68;59.60;97150.41;5026136;28;20199;-79
2022/05/26 01:42:23;;;;;;;0.70;0.70;;;;;;;14.75;59.28;97158.16;5029588;28;20239;-80
2022/05/26 01:45:20;;;;;;;0.90;0.90;;;;;;;14.74;59.66;97153.91;5029030;28;20180;-79
2022/05/26 01:48:18;;;;;;;0.73;0.73;;;;;;;14.71;59.60;97149.16;5019454;28;20262;-80
2022/05/26 01:51:17;;;;;;;1.77;0.90;;;;;;;14.59;59.82;97157.16;5010302;28;20219;-79
2022/05/26 01:54:04;;;;;;;2.40;0.90;;;;;;;14.66;59.69;97156.97;5004816;28;20179;-79
2022/05/26 01:56:47;;;;;;;1.07;0.93;;;;;;;14.52;60.39;97162.59;5014476;28;20317;-79
2022/05/26 01:59:22;;;;;;;0.93;0.80;;;;;;;14.57;60.20;97157.41;5021543;28;20735;-80
2022/05/26 02:01:54;;;;;;;1.77;1.07;;;;;;;14.57;60.24;97154.75;5022482;28;20180;-80
2022/05/26 02:04:26;;;;;;;1.57;0.87;;;;;;;14.54;60.21;97163.13;5022637;28;20179;-79
2022/05/26 02:07:06;;;;;;;2.67;1.17;;;;;;;14.54;60.45;97163.13;5036160;28;20182;-80
2022/05/26 02:09:41;;;;;;;1.40;0.80;;;;;;;14.60;60.18;97166.66;5022401;28;20206;-79
2022/05/26 02:12:12;;;;;;;1.00;1.00;;;;;;;14.65;59.80;97156.19;5022630;28;20207;-80
2022/05/26 02:14:47;;;;;;;3.83;0.80;;;;;;;14.64;59.76;97166.97;5023994;28;20207;-79
2022/05/26 02:17:26;;;;;;;0.80;0.80;;;;;;;14.49;60.37;97168.34;5024338;28;20206;-80
2022/05/26 02:20:14;;;;;;;1.50;1.00;;;;;;;14.38;60.94;97166.59;5011265;28;20232;-79
2022/05/26 02:22:49;;;;;;;0.90;0.90;;;;;;;14.37;61.01;97166.84;5020999;28;20179;-79
2022/05/26 02:25:21;;;;;;;0.80;0.77;;;;;;;14.41;61.01;97162.69;5020096;28;20187;-79
2022/05/26 02:27:51;;;;;;;2.20;0.90;;;;;;;14.39;60.92;97165.56;5021653;28;20601;-79
2022/05/26 02:30:17;;;;;;;0.93;0.87;;;;;;;14.47;60.75;97164.38;5024123;28;20774;-79
2022/05/26 02:32:48;;;;;;;2.30;0.80;;;;;;;14.44;60.73;97163.00;5024450;28;20184;-79
2022/05/26 02:35:21;;;;;;;1.57;0.87;;;;;;;14.40;61.11;97171.63;5024213;28;20219;-78
2022/05/26 02:37:50;;;;;;;1.87;0.80;;;;;;;14.43;61.14;97168.53;5023439;28;20257;-80
2022/05/26 02:40:16;;;;;;;2.10;0.93;;;;;;;14.28;61.69;97168.25;5023603;28;20759;-79
2022/05/26 02:42:55;;;;;;;0.80;0.80;;;;;;;14.34;61.52;97167.28;5030128;28;20187;-78
2022/05/26 02:45:35;;;;;;;2.00;1.17;;;;;;;14.38;61.58;97169.22;5037340;28;20207;-78
2022/05/26 02:48:06;;;;;;;1.80;0.87;;;;;;;14.33;61.85;97157.78;5033471;28;20183;-78
2022/05/26 02:50:52;;;;;;;2.13;0.70;;;;;;;14.29;61.99;97165.38;5037750;28;20164;-78
2022/05/26 02:53:45;;;;;;;1.03;0.83;;;;;;;14.15;62.68;97172.78;5034457;28;20183;-77
2022/05/26 02:56:25;;;;;;;2.87;0.90;;;;;;;14.15;62.79;97177.28;5032672;28;20199;-79
2022/05/26 02:59:11;;;;;;;0.90;0.90;;;;;;;13.99;63.28;97170.94;5029162;28;20240;-79
2022/05/26 03:02:09;;;;;;;0.77;0.77;;;;;;;13.99;63.53;97173.59;5037204;28;20230;-78
2022/05/26 03:04:41;;;;;;;0.80;0.80;;;;;;;14.08;63.22;97176.66;5036910;28;20587;-78
2022/05/26 03:07:14;;;;;;;0.93;0.93;;;;;;;13.91;63.84;97170.56;5034464;28;20235;-79
2022/05/26 03:09:41;;;;;;;0.83;0.83;;;;;;;13.92;63.88;97172.16;5036371;28;20184;-79
2022/05/26 03:12:24;;;;;;;0.80;0.80;;;;;;;13.94;63.75;97177.97;5036733;28;20197;-78
2022/05/26 03:14:49;;;;;;;1.20;0.90;;;;;;;13.91;64.25;97183.72;5035719;28;20175;-78
2022/05/26 03:17:14;;;;;;;0.80;0.80;;;;;;;14.02;63.30;97185.50;5049639;28;20250;-77
2022/05/26 03:19:40;;;;;;;1.30;1.10;;;;;;;13.92;63.43;97178.22;5023010;28;20617;-77
2022/05/26 03:22:05;;;;;;;1.00;0.70;;;;;;;13.99;63.67;97180.69;5035144;28;20210;-78
2022/05/26 03:24:30;;;;;;;1.67;0.90;;;;;;;14.03;63.18;97182.63;5035501;28;20171;-79
2022/05/26 03:26:56;;;;;;;1.03;0.90;;;;;;;13.95;63.57;97182.22;5033894;28;20175;-77
2022/05/26 03:29:21;;;;;;;2.03;0.93;;;;;;;14.02;63.40;97185.50;5034460;28;20582;-78
2022/05/26 03:31:46;;;;;;;0.87;0.87;;;;;;;13.91;64.11;97183.72;5034542;28;20262;-78
2022/05/26 03:42:26;;;;;;;1.37;1.00;;;;;;;13.93;64.06;97190.34;5037858;28;20299;-80
2022/05/26 03:44:51;;;;;;;1.20;0.83;;;;;;;13.94;64.05;97186.69;5037514;28;20167;-78
2022/05/26 03:47:16;;;;;;;1.17;0.90;;;;;;;14.12;63.58;97183.84;5037435;28;20187;-78
2022/05/26 03:49:42;;;;;;;0.77;0.77;;;;;;;14.29;63.02;97185.69;5036184;28;20194;-78
2022/05/26 03:52:08;;;;;;;0.87;0.87;;;;;;;14.41;62.59;97195.13;5032447;28;20167;-77
2022/05/26 03:54:33;;;;;;;2.03;1.00;;;;;;;14.59;61.76;97193.28;5033109;28;20184;-78
2022/05/26 03:56:59;;;;;;;0.80;0.70;;;;;;;14.91;60.80;97191.63;5023267;28;20188;-77
2022/05/26 03:59:25;;;;;;;4.20;0.90;;;;;;;14.96;60.39;97200.41;5033319;28;20186;-77
2022/05/26 04:01:50;;;;;;;0.80;0.80;;;;;;;15.17;59.96;97198.81;5032761;28;20242;-77
2022/05/26 04:04:16;;;;;;;0.73;0.73;;;;;;;15.40;59.20;97198.59;5031684;28;20633;-77
2022/05/26 04:06:42;;;;;;;0.70;0.70;;;;;;;15.73;58.37;97202.13;5031184;28;20201;-77
2022/05/26 04:09:07;;;;;;;1.97;0.60;;;;;;;15.75;57.59;97200.06;5046328;28;20195;-77
2022/05/26 04:11:33;;;;;;;0.70;0.70;;;;;;;16.01;57.38;97201.88;5032857;28;20516;-77
2022/05/26 04:13:58;;;;;;;0.70;0.70;;;;;;;15.83;57.66;97204.88;5032550;28;20183;-77
2022/05/26 04:16:23;;;;;;;3.03;0.67;;;;;;;15.79;57.58;97209.88;5012603;28;20206;-78
2022/05/26 04:18:52;;;;;;;0.80;0.80;;;;;;;16.10;56.61;97220.75;5028554;28;20231;-77
2022/05/26 04:21:18;;;;;;;1.00;0.73;;;;;;;16.34;56.15;97223.84;5032836;28;20187;-77
2022/05/26 04:23:43;;;;;;;1.77;0.97;;;;;;;16.19;56.12;97227.97;5015622;28;20218;-77
2022/05/26 04:26:09;;;;;;;0.60;0.60;;;;;;;16.21;56.18;97233.03;5032918;28;20168;-76
2022/05/26 04:28:35;;;;;;;0.70;0.70;;;;;;;16.29;56.05;97232.56;5015982;28;20258;-77
2022/05/26 04:31:01;;;;;;;1.10;0.50;;;;;;;16.53;55.46;97235.66;5032774;28;20187;-76
2022/05/26 04:33:26;;;;;;;1.27;0.80;;;;;;;16.30;56.21;97236.81;5031843;28;20217;-76
2022/05/26 04:35:53;;;;;;;1.70;0.80;;;;;;;16.48;55.48;97244.38;5031149;28;20187;-76
2022/05/26 04:38:19;;;;;;;0.60;0.60;;;;;;;16.43;55.66;97236.41;5030767;28;20213;-76
2022/05/26 04:40:45;;;;;;;0.60;0.60;;;;;;;16.44;55.62;97245.13;5029610;28;20267;-77
2022/05/26 04:43:11;;;;;;;1.10;0.70;;;;;;;16.47;55.60;97244.63;5034427;28;20183;-76
2022/05/26 04:45:36;;;;;;;2.00;0.90;;;;;;;16.68;55.21;97248.25;5033287;28;20179;-77
2022/05/26 04:48:02;;;;;;;0.97;0.70;;;;;;;16.55;55.57;97247.56;5031872;28;20191;-77
2022/05/26 04:50:28;;;;;;;0.80;0.80;;;;;;;16.88;55.08;97251.03;5031990;28;20195;-76
2022/05/26 04:52:53;;;;;;;0.70;0.70;;;;;;;17.10;54.13;97246.41;5032264;28;20677;-76
2022/05/26 04:55:19;;;;;;;0.73;0.50;;;;;;;17.20;54.10;97248.31;5014211;28;20183;-76
2022/05/26 04:57:44;;;;;;;1.03;0.97;;;;;;;17.49;53.23;97248.72;5015750;28;20195;-77
2022/05/26 05:00:14;;;;;;;1.08;0.82;;;;;;;17.51;53.29;97251.91;5024332;28;20226;-75
2022/05/26 05:02:39;;;;;;;0.70;0.70;;;;;;;17.93;52.25;97249.16;5019313;28;20187;-77
2022/05/26 05:05:06;;;;;;;0.68;0.68;;;;;;;17.82;52.54;97249.16;5016523;28;20266;-77
2022/05/26 05:07:32;;;;;;;0.60;0.60;;;;;;;18.38;51.29;97257.19;4998271;28;20555;-77
2022/05/26 05:09:57;;;;;;;1.85;1.00;;;;;;;18.68;50.40;97264.38;5017400;28;20245;-76
2022/05/26 05:12:24;;;;;;;2.88;0.70;;;;;;;18.87;50.01;97264.66;5016349;28;20633;-76
2022/05/26 05:14:52;;;;;;;1.05;0.77;;;;;;;18.84;49.79;97263.31;5016786;28;20190;-77
2022/05/26 05:17:19;;;;;;;0.60;0.60;;;;;;;18.60;50.84;97271.03;5014605;28;20631;-76
2022/05/26 05:19:45;;;;;;;0.70;0.70;;;;;;;18.89;50.09;97270.50;5001664;28;20300;-75
2022/05/26 05:22:47;;;;;;;0.70;0.70;;;;;;;18.67;50.55;97276.88;5016921;28;20318;-77
2022/05/26 05:25:22;;;;;;;1.95;0.90;;;;;;;18.61;50.62;97277.94;5005391;28;20290;-77
2022/05/26 05:28:00;;;;;;;3.05;0.60;;;;;;;19.18;49.07;97263.53;5018383;28;20648;-76
2022/05/26 05:30:53;;;;;;;1.65;0.60;;;;;;;18.92;49.85;97265.44;5016310;28;20187;-78
2022/05/26 05:33:46;;;;;;;0.55;0.55;;;;;;;19.17;48.88;97271.78;5017620;28;20206;-78
2022/05/26 05:36:21;;;;;;;0.70;0.70;;;;;;;19.02;49.52;97273.41;5018214;28;20191;-77
2022/05/26 05:38:47;;;;;;;1.75;0.73;;;;;;;19.15;49.54;97272.06;4987682;28;20206;-77
2022/05/26 05:41:13;;;;;;;4.40;0.90;;;;;;;19.77;48.16;97268.16;5021059;28;20195;-77
2022/05/26 05:43:40;;;;;;;0.80;0.80;;;;;;;20.08;47.45;97272.25;5023110;28;20183;-77
2022/05/26 05:46:08;;;;;;;1.35;0.70;;;;;;;19.62;47.52;97276.19;5027614;28;20242;-77
2022/05/26 05:48:34;;;;;;;1.27;0.70;;;;;;;19.64;47.80;97280.16;5026936;28;20222;-76
2022/05/26 05:51:01;;;;;;;0.77;0.70;;;;;;;19.34;48.46;97286.34;5028011;28;20234;-77
2022/05/26 05:53:26;;;;;;;1.98;0.70;;;;;;;19.18;49.11;97279.47;5021374;28;20229;-78
2022/05/26 05:55:52;;;;;;;2.65;0.93;;;;;;;19.38;48.91;97282.09;5027551;28;20662;-77
2022/05/26 05:58:17;;;;;;;0.98;0.75;;;;;;;19.62;48.33;97284.16;5028407;28;20727;-76
2022/05/26 06:00:43;;;;;;;1.08;0.73;;;;;;;19.40;48.38;97289.78;5009680;28;20180;-77
2022/05/26 06:03:09;;;;;;;0.65;0.60;;;;;;;19.67;47.76;97292.16;5024151;28;20223;-77
2022/05/26 06:05:36;;;;;;;1.98;0.70;;;;;;;19.80;47.34;97291.53;5026395;28;20191;-79
2022/05/26 06:08:01;;;;;;;0.80;0.80;;;;;;;20.32;46.03;97289.19;5021121;28;20195;-77
2022/05/26 06:10:28;;;;;;;2.28;0.77;;;;;;;20.41;45.80;97285.91;5016045;28;20190;-78
2022/05/26 06:12:54;;;;;;;0.50;0.50;;;;;;;19.85;46.97;97289.66;5015870;28;20270;-78
2022/05/26 06:15:20;;;;;;;1.05;0.65;;;;;;;19.74;46.94;97295.28;5016545;28;20338;-77
2022/05/26 06:17:45;;;;;;;0.60;0.60;;;;;;;19.21;47.86;97294.91;4991507;28;20568;-76
2022/05/26 06:20:12;;;;;;;0.55;0.55;;;;;;;19.41;47.90;97302.03;5019426;28;20194;-76
2022/05/26 06:22:42;;;;;;;3.35;0.80;;;;;;;19.00;48.71;97309.28;5018119;28;20187;-77
2022/05/26 06:25:09;;;;;;;0.90;0.65;;;;;;;18.96;48.63;97308.19;5021386;28;20191;-77
2022/05/26 06:30:21;;;;;;;0.70;0.70;;;;;;;18.33;50.12;97307.63;5018595;28;20564;-81
2022/05/26 06:38:19;;;;;;;0.60;0.60;;;;;;;18.29;51.01;97309.19;5014776;28;20214;-79
2022/05/26 06:40:45;;;;;;;1.88;0.70;;;;;;;18.34;50.65;97314.50;5014547;28;20194;-79
2022/05/26 06:43:10;;;;;;;1.45;0.85;;;;;;;18.34;51.17;97314.50;5014455;28;20183;-79
2022/05/26 06:45:36;;;;;;;2.25;0.90;;;;;;;18.38;50.90;97314.81;5015940;28;20528;-79
2022/05/26 06:48:03;;;;;;;0.70;0.70;;;;;;;18.24;51.30;97319.78;5013949;28;20184;-79
2022/05/26 06:50:28;;;;;;;1.38;0.60;;;;;;;18.15;51.81;97318.72;4996781;28;20187;-78
2022/05/26 06:52:54;;;;;;;3.45;0.70;;;;;;;18.03;51.82;97318.97;5014491;28;20553;-80
2022/05/26 06:55:20;;;;;;;0.70;0.70;;;;;;;18.06;52.13;97314.97;5009587;28;20577;-81
2022/05/26 06:57:45;;;;;;;7.15;0.77;;;;;;;18.21;51.62;97317.69;4998071;28;20207;-82
2022/05/26 07:00:12;;;;;;;2.72;1.00;;;;;;;18.17;51.99;97325.34;5015813;28;20214;-81
2022/05/26 07:02:39;;;;;;;2.05;1.23;;;;;;;18.41;51.48;97327.53;5019678;28;20659;-77
2022/05/26 07:05:05;;;;;;;1.75;0.80;;;;;;;18.43;51.26;97328.88;5017123;28;20218;-79
2022/05/26 07:07:32;;;;;;;2.08;0.70;;;;;;;18.43;52.10;97334.19;5014180;28;20613;-69
2022/05/26 07:09:57;;;;;;;1.52;0.80;;;;;;;18.46;53.26;97327.53;5013784;28;20194;-68
2022/05/26 07:12:24;;;;;;;2.00;1.20;;;;;;;18.33;52.11;97336.81;5014173;28;20275;-69
2022/05/26 07:14:50;;;;;;;0.60;0.60;;;;;;;18.66;52.21;97333.72;5013255;28;20326;-69
2022/05/26 07:17:16;;;;;;;1.92;1.00;;;;;;;18.79;52.00;97340.34;5009122;28;20266;-68
2022/05/26 07:19:42;;;;;;;3.72;0.90;;;;;;;18.91;51.45;97337.44;5013515;28;20306;-68
2022/05/26 07:22:07;;;;;;;1.17;0.80;;;;;;;18.92;51.48;97347.81;5013648;28;20191;-68
2022/05/26 07:24:33;;;;;;;1.35;0.60;;;;;;;18.83;51.26;97343.28;5013237;28;20179;-68
2022/05/26 07:27:00;;;;;;;1.73;0.70;;;;;;;19.19;50.47;97344.84;5012868;28;20184;-68
2022/05/26 07:29:25;;;;;;;1.10;0.70;;;;;;;19.41;49.28;97339.25;5013625;28;20543;-69
2022/05/26 07:31:51;;;;;;;2.13;0.60;;;;;;;19.19;49.91;97349.38;5013006;28;20195;-73
2022/05/26 07:34:18;;;;;;;0.95;0.50;;;;;;;18.83;50.29;97348.59;5012997;28;20195;-78
2022/05/26 07:42:14;;;;;;;1.20;1.00;;;;;;;19.57;48.75;97335.50;5013356;28;20622;-76
2022/05/26 07:44:43;;;;;;;5.65;0.80;;;;;;;19.74;47.24;97349.28;5013238;28;20187;-72
2022/05/26 07:47:10;;;;;;;2.88;0.93;;;;;;;19.97;47.16;97349.75;5013528;28;20227;-76
2022/05/26 07:49:37;;;;;;;0.52;0.52;;;;;;;19.92;47.02;97351.38;5014993;28;20253;-78
2022/05/26 07:52:03;;;;;;;0.50;0.50;;;;;;;20.21;46.12;97345.38;5014262;28;20636;-77
2022/05/26 07:54:29;;;;;;;1.17;0.60;;;;;;;20.00;46.14;97351.88;5009446;28;20275;-74
2022/05/26 07:56:56;;;;;;;1.13;0.70;;;;;;;20.11;46.20;97356.88;5011714;28;20215;-73
2022/05/26 07:59:21;;;;;;;1.55;0.80;;;;;;;20.05;47.05;97357.97;5013377;28;20219;-75
2022/05/26 08:01:48;;;;;;;1.65;0.60;;;;;;;19.98;47.19;97365.44;5013273;28;20202;-75
2022/05/26 08:04:17;;;;;;;1.65;0.70;;;;;;;20.15;46.78;97363.25;5013933;28;20180;-76
2022/05/26 08:06:46;;;;;;;1.95;0.60;;;;;;;20.18;46.85;97367.22;5013518;28;20211;-80
2022/05/26 08:09:17;;;;;;;1.20;0.65;;;;;;;20.58;46.67;97368.91;4995642;28;20211;-77
2022/05/26 08:11:43;;;;;;;0.70;0.70;;;;;;;20.02;46.81;97373.66;4992788;28;20210;-76
2022/05/26 08:14:09;;;;;;;0.50;0.50;;;;;;;20.22;47.12;97377.06;5011472;28;20238;-76
2022/05/26 08:16:35;;;;;;;1.48;0.70;;;;;;;20.98;45.71;97375.81;5002609;28;20191;-76
2022/05/26 08:19:00;;;;;;;1.77;0.70;;;;;;;21.03;45.39;97373.91;5011979;28;20231;-78
2022/05/26 08:21:26;;;;;;;0.80;0.70;;;;;;;20.66;45.71;97371.00;5012463;28;20310;-76
2022/05/26 08:23:53;;;;;;;2.38;0.70;;;;;;;20.47;46.66;97373.50;5011613;28;20187;-77
2022/05/26 08:26:19;;;;;;;3.17;0.77;;;;;;;20.31;46.92;97385.25;5008937;28;20196;-77
2022/05/26 08:28:44;;;;;;;0.60;0.60;;;;;;;20.60;46.49;97372.88;5010298;28;20528;-76
2022/05/26 08:31:13;;;;;;;1.40;0.80;;;;;;;20.19;47.10;97387.44;5012419;28;20283;-76
2022/05/26 08:33:38;;;;;;;1.33;0.55;;;;;;;19.83;47.75;97389.44;4994612;28;20253;-76
2022/05/26 08:36:06;;;;;;;0.60;0.60;;;;;;;19.84;47.39;97381.19;5012593;28;20187;-78
2022/05/26 08:38:32;;;;;;;0.50;0.50;;;;;;;19.95;47.08;97383.81;5012670;28;20262;-75
2022/05/26 08:40:58;;;;;;;0.65;0.52;;;;;;;20.10;47.33;97384.56;5013353;28;20203;-77
2022/05/26 08:43:35;;;;;;;1.60;0.50;;;;;;;20.47;46.34;97389.47;4995578;28;20555;-76
2022/05/26 08:46:06;;;;;;;1.48;0.70;;;;;;;20.61;46.50;97395.78;4993096;28;20186;-76
2022/05/26 08:48:43;;;;;;;1.65;0.80;;;;;;;20.74;46.20;97399.69;4991824;28;20191;-78
2022/05/26 08:51:13;;;;;;;1.27;0.50;;;;;;;20.51;46.55;97389.69;5013410;28;20194;-77
2022/05/26 08:53:41;;;;;;;0.52;0.50;;;;;;;20.35;46.52;97394.31;5012991;28;20243;-75
2022/05/26 08:56:11;;;;;;;0.52;0.52;;;;;;;20.13;46.81;97399.19;5008673;28;20203;-78
2022/05/26 08:58:49;;;;;;;0.68;0.68;;;;;;;20.17;46.78;97400.25;4983794;28;20203;-74
2022/05/26 09:01:19;;;;;;;1.92;0.60;;;;;;;20.12;47.32;97400.25;5008201;28;20206;-77
2022/05/26 09:03:45;;;;;;;0.57;0.57;;;;;;;20.77;45.90;97393.81;5014207;28;20238;-77
2022/05/26 09:06:17;;;;;;;1.17;0.60;;;;;;;20.85;45.30;97397.75;5013338;28;20262;-78
2022/05/26 09:14:32;;;;;;;2.92;0.60;;;;;;;20.98;45.15;97408.59;5012428;28;20180;-78
2022/05/26 09:17:02;;;;;;;2.30;0.63;;;;;;;20.93;45.51;97403.31;4989510;28;20187;-78
2022/05/26 09:19:43;;;;;;;3.60;0.50;;;;;;;20.72;45.75;97401.84;5009294;28;20251;-78
2022/05/26 09:22:27;;;;;;;1.00;0.70;;;;;;;20.86;45.93;97408.16;4984245;28;20193;-79
2022/05/26 09:24:52;;;;;;;0.68;0.65;;;;;;;21.03;46.05;97407.75;5014323;28;20551;-77
2022/05/26 09:27:34;;;;;;;1.73;0.63;;;;;;;21.01;45.64;97400.03;5014802;28;20187;-77
2022/05/26 09:30:33;;;;;;;0.90;0.63;;;;;;;21.56;44.74;97403.34;5017157;28;20317;-70
2022/05/26 09:32:59;;;;;;;4.85;4.55;;;;;;;21.99;44.49;97401.59;4973898;28;20200;-80
2022/05/26 09:35:31;;;;;;;0.80;0.80;;;;;;;21.93;43.55;97400.03;5015957;28;20352;-77
2022/05/26 09:38:00;;;;;;;0.65;0.52;;;;;;;22.08;43.15;97410.56;5019380;28;20781;-73
2022/05/26 09:40:32;;;;;;;21.30;19.40;;;;;;;22.34;42.37;97417.22;5021392;28;20183;-81
2022/05/26 09:43:04;;;;;;;40.20;34.00;;;;;;;22.20;43.39;97421.63;5018065;28;20186;-76
2022/05/26 09:45:44;;;;;;;51.92;28.50;;;;;;;21.93;43.23;97429.41;5017959;28;20179;-74
2022/05/26 09:48:26;;;;;;;82.43;76.43;;;;;;;21.78;43.90;97427.69;5003347;28;20197;-79
2022/05/26 09:51:06;;;;;;;3.00;2.22;;;;;;;21.80;43.82;97419.38;5017046;28;20699;-78
2022/05/26 09:53:39;;;;;;;0.77;0.75;;;;;;;21.22;44.33;97421.25;5016606;28;20601;-77
2022/05/26 09:56:05;;;;;;;0.50;0.50;;;;;;;20.85;45.66;97424.41;5014426;28;20217;-77
2022/05/26 09:58:34;;;;;;;1.55;1.00;;;;;;;21.26;45.08;97423.09;5015452;28;20210;-75
2022/05/26 10:01:23;;;;;;;0.70;0.50;;;;;;;20.71;46.22;97427.69;5015168;28;20579;-75
2022/05/26 10:04:07;;;;;;;0.85;0.80;;;;;;;20.34;47.09;97422.81;5005838;28;20640;-78
2022/05/26 10:06:40;;;;;;;0.70;0.70;;;;;;;20.60;46.89;97436.81;5015763;28;20241;-77
2022/05/26 10:09:14;;;;;;;0.75;0.75;;;;;;;20.43;47.74;97440.91;5014944;28;20253;-77
2022/05/26 10:11:58;;;;;;;0.70;0.70;;;;;;;20.60;47.31;97434.16;5016353;28;20179;-75
2022/05/26 10:14:36;;;;;;;0.70;0.70;;;;;;;19.86;48.13;97429.59;5015330;28;20194;-78
2022/05/26 10:17:38;;;;;;;0.98;0.60;;;;;;;19.70;49.31;97444.00;4998171;28;20296;-78
2022/05/26 10:20:22;;;;;;;1.20;0.80;;;;;;;19.94;48.40;97441.56;5005100;28;20203;-78
2022/05/26 10:23:06;;;;;;;0.60;0.60;;;;;;;19.96;48.84;97442.09;5012909;28;20180;-77
2022/05/26 10:26:00;;;;;;;0.60;0.60;;;;;;;20.09;47.83;97433.53;5010464;28;20199;-78
2022/05/26 10:28:46;;;;;;;0.85;0.55;;;;;;;20.30;47.58;97435.06;4997637;28;20248;-78
2022/05/26 10:31:33;;;;;;;0.60;0.60;;;;;;;20.71;46.94;97433.03;5017957;28;20187;-79
2022/05/26 10:34:27;;;;;;;0.70;0.70;;;;;;;21.10;45.93;97432.25;5013388;28;20191;-79
2022/05/26 10:36:58;;;;;;;3.47;1.13;;;;;;;20.67;46.74;97439.97;5007022;28;20183;-78
2022/05/26 10:39:26;;;;;;;0.60;0.60;;;;;;;21.05;45.79;97434.94;5014000;28;20242;-78
2022/05/26 10:41:59;;;;;;;1.30;0.68;;;;;;;21.26;45.83;97443.63;5014258;28;20694;-78
2022/05/26 10:44:38;;;;;;;1.52;0.70;;;;;;;21.37;45.97;97440.59;5014304;28;20225;-79
2022/05/26 10:47:12;;;;;;;1.70;0.82;;;;;;;21.73;44.89;97438.41;4991375;28;20179;-78
2022/05/26 10:49:49;;;;;;;1.27;0.50;;;;;;;21.30;45.36;97440.09;5020980;28;20191;-78
2022/05/26 10:52:24;;;;;;;1.35;0.50;;;;;;;20.87;45.90;97433.72;4999100;28;20509;-79
2022/05/26 10:54:59;;;;;;;0.52;0.52;;;;;;;21.22;45.63;97443.38;5004344;28;20290;-79
2022/05/26 10:57:29;;;;;;;0.88;0.80;;;;;;;20.84;46.36;97444.94;4988728;28;20692;-78
2022/05/26 11:00:02;;;;;;;0.77;0.73;;;;;;;20.77;46.70;97435.66;5013819;28;20183;-78
2022/05/26 11:02:51;;;;;;;1.02;0.65;;;;;;;20.19;47.56;97438.81;5014154;28;20262;-79
2022/05/26 11:05:51;;;;;;;0.88;0.70;;;;;;;20.21;48.34;97436.69;5013811;28;20179;-79
2022/05/26 11:08:38;;;;;;;2.03;0.82;;;;;;;20.28;48.28;97437.19;4996261;28;20344;-78
2022/05/26 11:11:40;;;;;;;1.80;0.90;;;;;;;19.77;49.48;97441.88;5014261;28;20194;-79
2022/05/26 11:17:22;;;;;;;0.63;0.63;;;;;;;20.12;48.29;97440.97;5003509;28;20778;-78
2022/05/26 11:19:54;;;;;;;1.08;0.60;;;;;;;20.16;47.90;97444.69;4978842;28;20320;-78
2022/05/26 11:22:20;;;;;;;1.10;0.63;;;;;;;20.33;47.58;97444.41;4994404;28;20614;-78
2022/05/26 11:24:50;;;;;;;1.05;0.60;;;;;;;20.19;47.54;97446.00;4994196;28;20203;-78
2022/05/26 11:27:31;;;;;;;2.00;0.80;;;;;;;20.57;46.70;97442.69;5013154;28;20636;-78
2022/05/26 11:30:01;;;;;;;1.35;0.80;;;;;;;20.68;46.84;97443.41;4996000;28;20629;-78
2022/05/26 11:38:09;;;;;;;1.55;0.70;;;;;;;21.45;46.01;97445.34;5013211;28;20210;-79
2022/05/26 11:41:03;;;;;;;0.85;0.70;;;;;;;20.88;46.45;97443.31;5013601;28;20171;-79
2022/05/26 11:43:42;;;;;;;1.23;0.70;;;;;;;20.98;46.49;97443.25;4989242;28;20191;-79
2022/05/26 11:46:10;;;;;;;2.92;0.82;;;;;;;21.15;46.71;97440.22;5002845;28;20199;-79
2022/05/26 11:48:42;;;;;;;1.48;1.33;;;;;;;21.32;45.35;97439.84;5008210;28;20273;-79
2022/05/26 11:51:28;;;;;;;0.80;0.80;;;;;;;21.19;45.92;97440.47;5013281;28;20183;-79
2022/05/26 11:53:54;;;;;;;0.95;0.80;;;;;;;21.96;44.75;97440.31;5008926;28;20190;-79
2022/05/26 11:56:26;;;;;;;0.85;0.60;;;;;;;21.47;45.05;97437.84;5013104;28;20202;-79
2022/05/26 11:59:17;;;;;;;1.67;0.80;;;;;;;21.34;44.91;97435.03;5012516;28;20211;-79
2022/05/26 12:01:48;;;;;;;1.00;0.80;;;;;;;20.92;45.63;97431.03;5012796;28;20662;-78
2022/05/26 12:04:37;;;;;;;1.23;0.70;;;;;;;21.34;44.84;97437.69;5013194;28;20267;-79
2022/05/26 12:07:34;;;;;;;3.65;0.80;;;;;;;20.75;46.53;97427.94;5012883;28;20183;-78
2022/05/26 12:10:13;;;;;;;1.02;0.80;;;;;;;21.38;45.56;97423.53;5008560;28;20658;-79
2022/05/26 12:12:38;;;;;;;2.38;0.60;;;;;;;22.17;44.67;97426.75;5012319;28;20178;-79
2022/05/26 12:15:14;;;;;;;1.23;0.73;;;;;;;22.27;44.62;97423.97;5007250;28;20191;-79
2022/05/26 12:17:53;;;;;;;0.70;0.70;;;;;;;21.60;45.36;97432.94;5000279;28;20206;-78
2022/05/26 12:20:21;;;;;;;0.63;0.63;;;;;;;21.42;46.27;97429.09;5012816;28;20183;-78
2022/05/26 12:22:49;;;;;;;0.73;0.70;;;;;;;21.46;45.89;97432.78;5012267;28;20658;-79
2022/05/26 12:25:23;;;;;;;1.58;0.65;;;;;;;20.78;46.75;97432.72;5009089;28;20194;-77
2022/05/26 12:27:48;;;;;;;1.55;0.70;;;;;;;20.69;47.55;97431.69;5012365;28;20190;-77
2022/05/26 12:30:35;;;;;;;3.30;1.13;;;;;;;20.24;48.50;97433.47;5012736;28;20595;-78
2022/05/26 12:33:18;;;;;;;0.70;0.70;;;;;;;20.06;48.83;97431.41;4990948;28;20640;-79
2022/05/26 12:35:58;;;;;;;3.55;1.00;;;;;;;20.21;49.20;97430.56;5013308;28;20179;-75